sensor_id;sensor_type;location;lat;lon;timestamp;P1;durP1;ratioP1;P2;durP2;ratioP2
70707;SDS011;58277;47.316;18.908;2022-07-29T00:01:21;7.50;;;5.20;;
70707;SDS011;58277;47.316;18.908;2022-07-29T00:03:44;9.52;;;5.50;;
70707;SDS011;58277;47.316;18.908;2022-07-29T00:06:07;8.57;;;5.30;;
70707;SDS011;58277;47.316;18.908;2022-07-29T00:08:30;8.07;;;5.20;;
70707;SDS011;58277;47.316;18.908;2022-07-29T00:10:52;6.90;;;5.20;;
70707;SDS011;58277;47.316;18.908;2022-07-29T00:13:15;6.15;;;4.95;;
70707;SDS011;58277;47.316;18.908;2022-07-29T00:15:38;7.30;;;5.00;;
70707;SDS011;58277;47.316;18.908;2022-07-29T00:18:00;8.73;;;5.13;;
70707;SDS011;58277;47.316;18.908;2022-07-29T00:20:23;8.83;;;4.80;;
70707;SDS011;58277;47.316;18.908;2022-07-29T00:22:46;7.53;;;5.25;;
70707;SDS011;58277;47.316;18.908;2022-07-29T00:25:09;8.52;;;5.20;;
70707;SDS011;58277;47.316;18.908;2022-07-29T00:27:32;7.25;;;5.13;;
70707;SDS011;58277;47.316;18.908;2022-07-29T00:29:54;6.40;;;4.90;;
70707;SDS011;58277;47.316;18.908;2022-07-29T00:32:17;8.17;;;4.63;;
70707;SDS011;58277;47.316;18.908;2022-07-29T00:34:40;7.63;;;4.97;;
70707;SDS011;58277;47.316;18.908;2022-07-29T00:37:21;8.18;;;4.95;;
70707;SDS011;58277;47.316;18.908;2022-07-29T00:39:44;9.95;;;5.22;;
70707;SDS011;58277;47.316;18.908;2022-07-29T00:42:06;9.32;;;5.50;;
70707;SDS011;58277;47.316;18.908;2022-07-29T00:44:30;7.23;;;5.47;;
70707;SDS011;58277;47.316;18.908;2022-07-29T00:46:52;6.68;;;5.20;;
70707;SDS011;58277;47.316;18.908;2022-07-29T00:49:15;7.85;;;5.57;;
70707;SDS011;58277;47.316;18.908;2022-07-29T00:51:38;7.95;;;5.07;;
70707;SDS011;58277;47.316;18.908;2022-07-29T00:54:01;9.48;;;5.60;;
70707;SDS011;58277;47.316;18.908;2022-07-29T00:56:25;7.30;;;5.07;;
70707;SDS011;58277;47.316;18.908;2022-07-29T00:58:48;8.20;;;5.63;;
70707;SDS011;58277;47.316;18.908;2022-07-29T01:01:13;7.93;;;5.75;;
70707;SDS011;58277;47.316;18.908;2022-07-29T01:03:36;12.63;;;5.90;;
70707;SDS011;58277;47.316;18.908;2022-07-29T01:05:59;10.70;;;5.72;;
70707;SDS011;58277;47.316;18.908;2022-07-29T01:08:22;9.87;;;5.60;;
70707;SDS011;58277;47.316;18.908;2022-07-29T01:10:45;9.35;;;6.00;;
70707;SDS011;58277;47.316;18.908;2022-07-29T01:13:09;6.90;;;5.63;;
70707;SDS011;58277;47.316;18.908;2022-07-29T01:15:33;9.18;;;5.75;;
70707;SDS011;58277;47.316;18.908;2022-07-29T01:18:11;8.27;;;6.05;;
70707;SDS011;58277;47.316;18.908;2022-07-29T01:29:11;7.45;;;5.80;;
70707;SDS011;58277;47.316;18.908;2022-07-29T01:34:50;7.80;;;5.63;;
70707;SDS011;58277;47.316;18.908;2022-07-29T01:39:55;9.75;;;5.85;;
70707;SDS011;58277;47.316;18.908;2022-07-29T01:45:14;8.40;;;5.95;;
70707;SDS011;58277;47.316;18.908;2022-07-29T01:50:17;7.80;;;5.80;;
70707;SDS011;58277;47.316;18.908;2022-07-29T01:52:52;8.93;;;6.05;;
70707;SDS011;58277;47.316;18.908;2022-07-29T01:55:19;7.95;;;5.75;;
70707;SDS011;58277;47.316;18.908;2022-07-29T01:57:45;7.55;;;5.60;;
70707;SDS011;58277;47.316;18.908;2022-07-29T02:00:10;7.57;;;5.37;;
70707;SDS011;58277;47.316;18.908;2022-07-29T02:02:33;7.30;;;5.50;;
70707;SDS011;58277;47.316;18.908;2022-07-29T02:04:59;6.53;;;5.32;;
70707;SDS011;58277;47.316;18.908;2022-07-29T02:07:23;7.55;;;5.22;;
70707;SDS011;58277;47.316;18.908;2022-07-29T02:09:50;7.80;;;5.40;;
70707;SDS011;58277;47.316;18.908;2022-07-29T02:12:15;8.67;;;5.30;;
70707;SDS011;58277;47.316;18.908;2022-07-29T02:14:41;11.48;;;5.70;;
70707;SDS011;58277;47.316;18.908;2022-07-29T02:17:06;7.63;;;5.03;;
70707;SDS011;58277;47.316;18.908;2022-07-29T02:19:30;9.38;;;5.28;;
70707;SDS011;58277;47.316;18.908;2022-07-29T02:21:55;8.10;;;5.57;;
70707;SDS011;58277;47.316;18.908;2022-07-29T02:24:19;8.23;;;5.13;;
70707;SDS011;58277;47.316;18.908;2022-07-29T02:26:44;7.38;;;5.38;;
70707;SDS011;58277;47.316;18.908;2022-07-29T02:29:08;7.85;;;5.65;;
70707;SDS011;58277;47.316;18.908;2022-07-29T02:31:33;6.75;;;5.45;;
70707;SDS011;58277;47.316;18.908;2022-07-29T02:33:58;7.00;;;5.65;;
70707;SDS011;58277;47.316;18.908;2022-07-29T02:36:22;6.70;;;5.30;;
70707;SDS011;58277;47.316;18.908;2022-07-29T02:38:47;7.97;;;5.55;;
70707;SDS011;58277;47.316;18.908;2022-07-29T02:41:15;9.50;;;6.20;;
70707;SDS011;58277;47.316;18.908;2022-07-29T02:43:40;7.07;;;5.35;;
70707;SDS011;58277;47.316;18.908;2022-07-29T02:46:07;7.53;;;5.85;;
70707;SDS011;58277;47.316;18.908;2022-07-29T02:51:46;8.98;;;6.00;;
70707;SDS011;58277;47.316;18.908;2022-07-29T02:54:51;8.27;;;6.25;;
70707;SDS011;58277;47.316;18.908;2022-07-29T02:57:14;9.65;;;6.20;;
70707;SDS011;58277;47.316;18.908;2022-07-29T02:59:47;10.60;;;5.70;;
70707;SDS011;58277;47.316;18.908;2022-07-29T03:02:13;7.80;;;5.97;;
70707;SDS011;58277;47.316;18.908;2022-07-29T03:04:37;9.70;;;5.95;;
70707;SDS011;58277;47.316;18.908;2022-07-29T03:07:03;13.23;;;6.47;;
70707;SDS011;58277;47.316;18.908;2022-07-29T03:09:27;7.10;;;5.70;;
70707;SDS011;58277;47.316;18.908;2022-07-29T03:11:51;9.55;;;6.47;;
70707;SDS011;58277;47.316;18.908;2022-07-29T03:14:17;8.90;;;6.17;;
70707;SDS011;58277;47.316;18.908;2022-07-29T03:16:42;10.88;;;6.65;;
70707;SDS011;58277;47.316;18.908;2022-07-29T03:19:05;8.85;;;6.22;;
70707;SDS011;58277;47.316;18.908;2022-07-29T03:21:27;9.48;;;6.07;;
70707;SDS011;58277;47.316;18.908;2022-07-29T03:23:50;10.57;;;6.55;;
70707;SDS011;58277;47.316;18.908;2022-07-29T03:26:13;8.53;;;6.07;;
70707;SDS011;58277;47.316;18.908;2022-07-29T03:28:36;10.18;;;6.63;;
70707;SDS011;58277;47.316;18.908;2022-07-29T03:31:00;10.13;;;6.47;;
70707;SDS011;58277;47.316;18.908;2022-07-29T03:33:23;8.27;;;6.50;;
70707;SDS011;58277;47.316;18.908;2022-07-29T03:35:46;8.38;;;6.30;;
70707;SDS011;58277;47.316;18.908;2022-07-29T03:38:09;9.17;;;6.27;;
70707;SDS011;58277;47.316;18.908;2022-07-29T03:40:53;8.15;;;6.40;;
70707;SDS011;58277;47.316;18.908;2022-07-29T03:43:18;8.82;;;6.63;;
70707;SDS011;58277;47.316;18.908;2022-07-29T03:45:42;10.05;;;6.53;;
70707;SDS011;58277;47.316;18.908;2022-07-29T03:48:08;9.35;;;6.78;;
70707;SDS011;58277;47.316;18.908;2022-07-29T03:50:34;10.30;;;6.63;;
70707;SDS011;58277;47.316;18.908;2022-07-29T03:52:58;9.07;;;6.38;;
70707;SDS011;58277;47.316;18.908;2022-07-29T03:55:21;9.05;;;6.43;;
70707;SDS011;58277;47.316;18.908;2022-07-29T03:57:44;10.93;;;6.78;;
70707;SDS011;58277;47.316;18.908;2022-07-29T04:00:08;9.40;;;6.53;;
70707;SDS011;58277;47.316;18.908;2022-07-29T04:02:31;9.83;;;6.53;;
70707;SDS011;58277;47.316;18.908;2022-07-29T04:04:55;10.65;;;7.03;;
70707;SDS011;58277;47.316;18.908;2022-07-29T04:07:18;9.30;;;6.80;;
70707;SDS011;58277;47.316;18.908;2022-07-29T04:09:41;10.40;;;6.63;;
70707;SDS011;58277;47.316;18.908;2022-07-29T04:12:04;10.05;;;6.65;;
70707;SDS011;58277;47.316;18.908;2022-07-29T04:14:27;10.73;;;6.53;;
70707;SDS011;58277;47.316;18.908;2022-07-29T04:16:50;9.90;;;6.82;;
70707;SDS011;58277;47.316;18.908;2022-07-29T04:19:12;11.95;;;6.93;;
70707;SDS011;58277;47.316;18.908;2022-07-29T04:24:19;10.13;;;7.00;;
70707;SDS011;58277;47.316;18.908;2022-07-29T04:26:43;10.73;;;6.40;;
70707;SDS011;58277;47.316;18.908;2022-07-29T04:29:07;10.48;;;6.95;;
70707;SDS011;58277;47.316;18.908;2022-07-29T04:31:29;12.18;;;7.57;;
70707;SDS011;58277;47.316;18.908;2022-07-29T04:33:52;11.45;;;6.88;;
70707;SDS011;58277;47.316;18.908;2022-07-29T04:36:15;11.13;;;7.00;;
70707;SDS011;58277;47.316;18.908;2022-07-29T04:38:50;10.77;;;6.97;;
70707;SDS011;58277;47.316;18.908;2022-07-29T04:41:13;10.05;;;6.90;;
70707;SDS011;58277;47.316;18.908;2022-07-29T04:43:41;9.85;;;7.20;;
70707;SDS011;58277;47.316;18.908;2022-07-29T04:46:05;10.52;;;6.68;;
70707;SDS011;58277;47.316;18.908;2022-07-29T04:48:29;10.20;;;6.80;;
70707;SDS011;58277;47.316;18.908;2022-07-29T04:50:52;9.13;;;6.90;;
70707;SDS011;58277;47.316;18.908;2022-07-29T04:53:14;8.85;;;7.05;;
70707;SDS011;58277;47.316;18.908;2022-07-29T04:55:37;9.32;;;6.85;;
70707;SDS011;58277;47.316;18.908;2022-07-29T04:58:00;8.80;;;6.50;;
70707;SDS011;58277;47.316;18.908;2022-07-29T05:00:23;10.80;;;6.88;;
70707;SDS011;58277;47.316;18.908;2022-07-29T05:02:54;11.33;;;6.67;;
70707;SDS011;58277;47.316;18.908;2022-07-29T05:05:17;9.75;;;6.63;;
70707;SDS011;58277;47.316;18.908;2022-07-29T05:07:40;10.52;;;5.97;;
70707;SDS011;58277;47.316;18.908;2022-07-29T05:10:03;9.98;;;6.70;;
70707;SDS011;58277;47.316;18.908;2022-07-29T05:12:26;10.07;;;6.80;;
70707;SDS011;58277;47.316;18.908;2022-07-29T05:14:49;9.53;;;6.60;;
70707;SDS011;58277;47.316;18.908;2022-07-29T05:17:13;8.95;;;6.47;;
70707;SDS011;58277;47.316;18.908;2022-07-29T05:19:36;10.98;;;6.32;;
70707;SDS011;58277;47.316;18.908;2022-07-29T05:22:01;9.05;;;6.57;;
70707;SDS011;58277;47.316;18.908;2022-07-29T05:24:23;10.20;;;6.40;;
70707;SDS011;58277;47.316;18.908;2022-07-29T05:26:51;8.70;;;6.60;;
70707;SDS011;58277;47.316;18.908;2022-07-29T05:29:14;9.43;;;6.40;;
70707;SDS011;58277;47.316;18.908;2022-07-29T05:31:56;9.82;;;6.72;;
70707;SDS011;58277;47.316;18.908;2022-07-29T05:34:19;9.65;;;6.80;;
70707;SDS011;58277;47.316;18.908;2022-07-29T05:36:42;8.32;;;6.45;;
70707;SDS011;58277;47.316;18.908;2022-07-29T05:39:05;10.17;;;7.00;;
70707;SDS011;58277;47.316;18.908;2022-07-29T05:41:27;9.10;;;6.53;;
70707;SDS011;58277;47.316;18.908;2022-07-29T05:43:51;10.20;;;6.60;;
70707;SDS011;58277;47.316;18.908;2022-07-29T05:46:14;8.60;;;6.57;;
70707;SDS011;58277;47.316;18.908;2022-07-29T05:48:37;10.60;;;6.63;;
70707;SDS011;58277;47.316;18.908;2022-07-29T05:51:01;8.47;;;6.23;;
70707;SDS011;58277;47.316;18.908;2022-07-29T05:53:24;9.80;;;6.57;;
70707;SDS011;58277;47.316;18.908;2022-07-29T05:58:30;9.05;;;6.60;;
70707;SDS011;58277;47.316;18.908;2022-07-29T06:00:52;8.90;;;6.32;;
70707;SDS011;58277;47.316;18.908;2022-07-29T06:03:16;9.77;;;6.70;;
70707;SDS011;58277;47.316;18.908;2022-07-29T06:05:38;11.82;;;6.20;;
70707;SDS011;58277;47.316;18.908;2022-07-29T06:08:01;9.50;;;7.20;;
70707;SDS011;58277;47.316;18.908;2022-07-29T06:10:23;9.55;;;6.88;;
70707;SDS011;58277;47.316;18.908;2022-07-29T06:12:48;8.75;;;6.60;;
70707;SDS011;58277;47.316;18.908;2022-07-29T06:15:10;11.87;;;7.23;;
70707;SDS011;58277;47.316;18.908;2022-07-29T06:17:33;11.02;;;7.35;;
70707;SDS011;58277;47.316;18.908;2022-07-29T06:19:56;10.65;;;6.85;;
70707;SDS011;58277;47.316;18.908;2022-07-29T06:22:19;11.63;;;6.85;;
70707;SDS011;58277;47.316;18.908;2022-07-29T06:24:41;10.50;;;7.63;;
70707;SDS011;58277;47.316;18.908;2022-07-29T06:27:06;9.37;;;7.03;;
70707;SDS011;58277;47.316;18.908;2022-07-29T06:29:28;9.13;;;7.13;;
70707;SDS011;58277;47.316;18.908;2022-07-29T06:31:51;12.25;;;7.30;;
70707;SDS011;58277;47.316;18.908;2022-07-29T06:34:13;9.75;;;6.97;;
70707;SDS011;58277;47.316;18.908;2022-07-29T06:36:36;11.60;;;7.00;;
70707;SDS011;58277;47.316;18.908;2022-07-29T06:39:03;8.90;;;6.73;;
70707;SDS011;58277;47.316;18.908;2022-07-29T06:41:27;9.38;;;6.88;;
70707;SDS011;58277;47.316;18.908;2022-07-29T06:43:49;10.63;;;7.15;;
70707;SDS011;58277;47.316;18.908;2022-07-29T06:46:18;11.32;;;7.38;;
70707;SDS011;58277;47.316;18.908;2022-07-29T06:48:42;11.50;;;7.32;;
70707;SDS011;58277;47.316;18.908;2022-07-29T06:51:05;9.90;;;7.20;;
70707;SDS011;58277;47.316;18.908;2022-07-29T06:53:28;13.32;;;7.80;;
70707;SDS011;58277;47.316;18.908;2022-07-29T06:55:51;12.95;;;7.88;;
70707;SDS011;58277;47.316;18.908;2022-07-29T06:58:14;11.30;;;7.40;;
70707;SDS011;58277;47.316;18.908;2022-07-29T07:00:49;10.68;;;7.60;;
70707;SDS011;58277;47.316;18.908;2022-07-29T07:03:12;11.50;;;7.33;;
70707;SDS011;58277;47.316;18.908;2022-07-29T07:05:35;9.88;;;7.50;;
70707;SDS011;58277;47.316;18.908;2022-07-29T07:07:58;10.60;;;7.50;;
70707;SDS011;58277;47.316;18.908;2022-07-29T07:10:20;10.25;;;7.53;;
70707;SDS011;58277;47.316;18.908;2022-07-29T07:12:45;10.02;;;7.20;;
70707;SDS011;58277;47.316;18.908;2022-07-29T07:15:07;10.40;;;7.10;;
70707;SDS011;58277;47.316;18.908;2022-07-29T07:17:30;12.27;;;7.85;;
70707;SDS011;58277;47.316;18.908;2022-07-29T07:19:53;10.57;;;7.45;;
70707;SDS011;58277;47.316;18.908;2022-07-29T07:22:15;12.23;;;7.30;;
70707;SDS011;58277;47.316;18.908;2022-07-29T07:24:38;11.25;;;7.38;;
70707;SDS011;58277;47.316;18.908;2022-07-29T07:27:01;10.23;;;7.33;;
70707;SDS011;58277;47.316;18.908;2022-07-29T07:29:24;11.88;;;7.70;;
70707;SDS011;58277;47.316;18.908;2022-07-29T07:31:47;11.23;;;7.75;;
70707;SDS011;58277;47.316;18.908;2022-07-29T07:34:09;10.93;;;7.60;;
70707;SDS011;58277;47.316;18.908;2022-07-29T07:36:32;12.73;;;8.00;;
70707;SDS011;58277;47.316;18.908;2022-07-29T07:38:55;10.93;;;7.80;;
70707;SDS011;58277;47.316;18.908;2022-07-29T07:41:18;10.70;;;7.30;;
70707;SDS011;58277;47.316;18.908;2022-07-29T07:43:40;12.30;;;7.55;;
70707;SDS011;58277;47.316;18.908;2022-07-29T07:46:03;11.23;;;7.43;;
70707;SDS011;58277;47.316;18.908;2022-07-29T07:48:26;11.57;;;7.88;;
70707;SDS011;58277;47.316;18.908;2022-07-29T07:50:49;10.13;;;7.47;;
70707;SDS011;58277;47.316;18.908;2022-07-29T07:53:12;11.15;;;7.30;;
70707;SDS011;58277;47.316;18.908;2022-07-29T07:55:43;10.35;;;7.55;;
70707;SDS011;58277;47.316;18.908;2022-07-29T07:58:26;8.70;;;7.28;;
70707;SDS011;58277;47.316;18.908;2022-07-29T08:00:49;10.70;;;7.45;;
70707;SDS011;58277;47.316;18.908;2022-07-29T08:03:12;12.80;;;7.77;;
70707;SDS011;58277;47.316;18.908;2022-07-29T08:05:38;9.90;;;7.43;;
70707;SDS011;58277;47.316;18.908;2022-07-29T08:08:01;9.68;;;7.53;;
70707;SDS011;58277;47.316;18.908;2022-07-29T08:10:23;13.85;;;7.47;;
70707;SDS011;58277;47.316;18.908;2022-07-29T08:13:05;8.00;;;6.68;;
70707;SDS011;58277;47.316;18.908;2022-07-29T08:15:29;10.70;;;7.50;;
70707;SDS011;58277;47.316;18.908;2022-07-29T08:17:52;10.07;;;7.78;;
70707;SDS011;58277;47.316;18.908;2022-07-29T08:20:14;9.13;;;7.65;;
70707;SDS011;58277;47.316;18.908;2022-07-29T08:22:37;13.10;;;7.28;;
70707;SDS011;58277;47.316;18.908;2022-07-29T08:24:59;11.30;;;7.43;;
70707;SDS011;58277;47.316;18.908;2022-07-29T08:27:23;10.40;;;7.18;;
70707;SDS011;58277;47.316;18.908;2022-07-29T08:30:05;11.60;;;7.15;;
70707;SDS011;58277;47.316;18.908;2022-07-29T08:32:29;10.32;;;7.13;;
70707;SDS011;58277;47.316;18.908;2022-07-29T08:35:13;8.85;;;7.07;;
70707;SDS011;58277;47.316;18.908;2022-07-29T08:37:36;9.13;;;7.10;;
70707;SDS011;58277;47.316;18.908;2022-07-29T08:39:58;12.32;;;7.22;;
70707;SDS011;58277;47.316;18.908;2022-07-29T08:42:21;9.88;;;7.13;;
70707;SDS011;58277;47.316;18.908;2022-07-29T08:44:44;9.48;;;6.88;;
70707;SDS011;58277;47.316;18.908;2022-07-29T08:47:07;10.00;;;7.20;;
70707;SDS011;58277;47.316;18.908;2022-07-29T08:49:30;10.00;;;7.10;;
70707;SDS011;58277;47.316;18.908;2022-07-29T08:51:54;10.05;;;7.47;;
70707;SDS011;58277;47.316;18.908;2022-07-29T08:54:19;9.90;;;6.93;;
70707;SDS011;58277;47.316;18.908;2022-07-29T08:56:44;11.55;;;7.05;;
70707;SDS011;58277;47.316;18.908;2022-07-29T08:59:12;10.65;;;6.78;;
70707;SDS011;58277;47.316;18.908;2022-07-29T09:01:37;10.90;;;7.00;;
70707;SDS011;58277;47.316;18.908;2022-07-29T09:04:08;12.27;;;7.10;;
70707;SDS011;58277;47.316;18.908;2022-07-29T09:06:34;9.02;;;6.85;;
70707;SDS011;58277;47.316;18.908;2022-07-29T09:08:59;9.70;;;6.88;;
70707;SDS011;58277;47.316;18.908;2022-07-29T09:11:22;10.05;;;6.95;;
70707;SDS011;58277;47.316;18.908;2022-07-29T09:13:45;8.43;;;6.93;;
70707;SDS011;58277;47.316;18.908;2022-07-29T09:16:08;9.98;;;6.32;;
70707;SDS011;58277;47.316;18.908;2022-07-29T09:18:38;10.38;;;6.57;;
70707;SDS011;58277;47.316;18.908;2022-07-29T09:21:03;8.68;;;6.00;;
70707;SDS011;58277;47.316;18.908;2022-07-29T09:26:42;9.77;;;6.20;;
70707;SDS011;58277;47.316;18.908;2022-07-29T09:29:10;9.25;;;6.53;;
70707;SDS011;58277;47.316;18.908;2022-07-29T09:31:37;7.90;;;6.10;;
70707;SDS011;58277;47.316;18.908;2022-07-29T09:34:02;10.90;;;6.25;;
70707;SDS011;58277;47.316;18.908;2022-07-29T09:36:26;9.50;;;6.15;;
70707;SDS011;58277;47.316;18.908;2022-07-29T09:39:02;7.63;;;6.10;;
70707;SDS011;58277;47.316;18.908;2022-07-29T09:41:25;11.10;;;6.10;;
70707;SDS011;58277;47.316;18.908;2022-07-29T09:43:58;8.32;;;6.43;;
70707;SDS011;58277;47.316;18.908;2022-07-29T09:46:21;7.05;;;5.85;;
70707;SDS011;58277;47.316;18.908;2022-07-29T09:48:45;8.32;;;6.30;;
70707;SDS011;58277;47.316;18.908;2022-07-29T09:51:30;8.73;;;6.17;;
70707;SDS011;58277;47.316;18.908;2022-07-29T09:53:59;10.07;;;5.90;;
70707;SDS011;58277;47.316;18.908;2022-07-29T09:56:38;8.73;;;6.38;;
70707;SDS011;58277;47.316;18.908;2022-07-29T09:59:07;7.70;;;5.70;;
70707;SDS011;58277;47.316;18.908;2022-07-29T10:01:30;7.38;;;6.00;;
70707;SDS011;58277;47.316;18.908;2022-07-29T10:03:53;9.17;;;6.13;;
70707;SDS011;58277;47.316;18.908;2022-07-29T10:06:16;8.82;;;5.75;;
70707;SDS011;58277;47.316;18.908;2022-07-29T10:08:38;6.60;;;5.80;;
70707;SDS011;58277;47.316;18.908;2022-07-29T10:11:14;6.60;;;5.40;;
70707;SDS011;58277;47.316;18.908;2022-07-29T10:13:38;6.68;;;5.55;;
70707;SDS011;58277;47.316;18.908;2022-07-29T10:16:02;7.40;;;4.97;;
70707;SDS011;58277;47.316;18.908;2022-07-29T10:18:26;7.10;;;5.53;;
70707;SDS011;58277;47.316;18.908;2022-07-29T10:20:49;6.10;;;5.15;;
70707;SDS011;58277;47.316;18.908;2022-07-29T10:23:12;5.85;;;5.10;;
70707;SDS011;58277;47.316;18.908;2022-07-29T10:25:36;6.47;;;4.90;;
70707;SDS011;58277;47.316;18.908;2022-07-29T10:27:59;7.70;;;5.03;;
70707;SDS011;58277;47.316;18.908;2022-07-29T10:30:22;8.65;;;5.30;;
70707;SDS011;58277;47.316;18.908;2022-07-29T10:44:08;5.80;;;4.70;;
70707;SDS011;58277;47.316;18.908;2022-07-29T10:46:40;5.72;;;5.20;;
70707;SDS011;58277;47.316;18.908;2022-07-29T10:52:19;9.80;;;4.90;;
70707;SDS011;58277;47.316;18.908;2022-07-29T11:07:37;7.30;;;5.07;;
70707;SDS011;58277;47.316;18.908;2022-07-29T11:15:00;6.35;;;4.90;;
70707;SDS011;58277;47.316;18.908;2022-07-29T11:17:25;6.63;;;5.00;;
70707;SDS011;58277;47.316;18.908;2022-07-29T11:22:57;6.75;;;5.20;;
70707;SDS011;58277;47.316;18.908;2022-07-29T11:25:21;7.38;;;5.38;;
70707;SDS011;58277;47.316;18.908;2022-07-29T11:28:08;8.32;;;5.25;;
70707;SDS011;58277;47.316;18.908;2022-07-29T11:30:47;7.30;;;5.28;;
70707;SDS011;58277;47.316;18.908;2022-07-29T11:33:26;6.73;;;5.50;;
70707;SDS011;58277;47.316;18.908;2022-07-29T11:36:10;8.15;;;5.18;;
70707;SDS011;58277;47.316;18.908;2022-07-29T11:38:38;6.00;;;4.70;;
70707;SDS011;58277;47.316;18.908;2022-07-29T11:41:36;7.10;;;5.10;;
70707;SDS011;58277;47.316;18.908;2022-07-29T11:43:59;6.72;;;5.40;;
70707;SDS011;58277;47.316;18.908;2022-07-29T11:49:09;6.00;;;5.07;;
70707;SDS011;58277;47.316;18.908;2022-07-29T11:51:36;5.93;;;5.07;;
70707;SDS011;58277;47.316;18.908;2022-07-29T11:54:09;7.72;;;5.40;;
70707;SDS011;58277;47.316;18.908;2022-07-29T11:56:37;5.32;;;4.82;;
70707;SDS011;58277;47.316;18.908;2022-07-29T11:59:06;5.57;;;4.30;;
70707;SDS011;58277;47.316;18.908;2022-07-29T12:01:36;4.95;;;4.47;;
70707;SDS011;58277;47.316;18.908;2022-07-29T12:04:12;6.82;;;4.90;;
70707;SDS011;58277;47.316;18.908;2022-07-29T12:06:35;6.00;;;4.70;;
70707;SDS011;58277;47.316;18.908;2022-07-29T12:08:58;7.43;;;4.97;;
70707;SDS011;58277;47.316;18.908;2022-07-29T12:11:22;6.00;;;4.90;;
70707;SDS011;58277;47.316;18.908;2022-07-29T12:13:45;7.63;;;5.20;;
70707;SDS011;58277;47.316;18.908;2022-07-29T12:16:10;6.80;;;4.95;;
70707;SDS011;58277;47.316;18.908;2022-07-29T12:18:35;8.52;;;4.63;;
70707;SDS011;58277;47.316;18.908;2022-07-29T12:20:59;5.75;;;5.15;;
70707;SDS011;58277;47.316;18.908;2022-07-29T12:23:26;5.87;;;4.90;;
70707;SDS011;58277;47.316;18.908;2022-07-29T12:25:55;6.72;;;4.80;;
70707;SDS011;58277;47.316;18.908;2022-07-29T12:28:20;6.55;;;5.00;;
70707;SDS011;58277;47.316;18.908;2022-07-29T12:30:49;9.20;;;5.25;;
70707;SDS011;58277;47.316;18.908;2022-07-29T12:33:14;6.25;;;4.68;;
70707;SDS011;58277;47.316;18.908;2022-07-29T12:35:39;9.27;;;4.93;;
70707;SDS011;58277;47.316;18.908;2022-07-29T12:38:03;6.63;;;5.25;;
70707;SDS011;58277;47.316;18.908;2022-07-29T12:40:26;8.88;;;5.00;;
70707;SDS011;58277;47.316;18.908;2022-07-29T12:45:31;6.78;;;5.13;;
70707;SDS011;58277;47.316;18.908;2022-07-29T12:47:54;7.03;;;4.80;;
70707;SDS011;58277;47.316;18.908;2022-07-29T12:50:17;7.82;;;5.22;;
70707;SDS011;58277;47.316;18.908;2022-07-29T12:52:45;5.90;;;5.28;;
70707;SDS011;58277;47.316;18.908;2022-07-29T12:55:08;6.72;;;5.50;;
70707;SDS011;58277;47.316;18.908;2022-07-29T12:57:31;6.18;;;5.32;;
70707;SDS011;58277;47.316;18.908;2022-07-29T13:00:11;8.47;;;5.10;;
70707;SDS011;58277;47.316;18.908;2022-07-29T13:02:35;8.00;;;5.22;;
70707;SDS011;58277;47.316;18.908;2022-07-29T13:04:59;7.00;;;5.65;;
70707;SDS011;58277;47.316;18.908;2022-07-29T13:07:25;6.88;;;4.93;;
70707;SDS011;58277;47.316;18.908;2022-07-29T13:10:16;9.85;;;5.15;;
70707;SDS011;58277;47.316;18.908;2022-07-29T13:15:34;6.45;;;5.05;;
70707;SDS011;58277;47.316;18.908;2022-07-29T13:17:57;8.07;;;4.93;;
70707;SDS011;58277;47.316;18.908;2022-07-29T13:20:23;5.80;;;5.20;;
70707;SDS011;58277;47.316;18.908;2022-07-29T13:22:47;7.57;;;4.93;;
70707;SDS011;58277;47.316;18.908;2022-07-29T13:25:10;6.83;;;4.90;;
70707;SDS011;58277;47.316;18.908;2022-07-29T13:27:34;6.57;;;5.20;;
70707;SDS011;58277;47.316;18.908;2022-07-29T13:29:59;12.57;;;5.38;;
70707;SDS011;58277;47.316;18.908;2022-07-29T13:32:24;6.78;;;4.75;;
70707;SDS011;58277;47.316;18.908;2022-07-29T13:34:49;5.65;;;4.82;;
70707;SDS011;58277;47.316;18.908;2022-07-29T13:37:12;7.07;;;5.00;;
70707;SDS011;58277;47.316;18.908;2022-07-29T13:39:36;8.27;;;5.30;;
70707;SDS011;58277;47.316;18.908;2022-07-29T13:41:59;8.00;;;5.50;;
70707;SDS011;58277;47.316;18.908;2022-07-29T13:44:22;6.78;;;5.10;;
70707;SDS011;58277;47.316;18.908;2022-07-29T13:46:45;8.35;;;4.93;;
70707;SDS011;58277;47.316;18.908;2022-07-29T13:49:08;5.77;;;5.10;;
70707;SDS011;58277;47.316;18.908;2022-07-29T13:51:30;6.90;;;5.00;;
70707;SDS011;58277;47.316;18.908;2022-07-29T13:53:53;10.85;;;5.07;;
70707;SDS011;58277;47.316;18.908;2022-07-29T13:56:16;5.88;;;5.05;;
70707;SDS011;58277;47.316;18.908;2022-07-29T13:58:38;8.90;;;5.40;;
70707;SDS011;58277;47.316;18.908;2022-07-29T14:01:02;5.63;;;5.03;;
70707;SDS011;58277;47.316;18.908;2022-07-29T14:03:25;7.70;;;5.50;;
70707;SDS011;58277;47.316;18.908;2022-07-29T14:05:47;6.97;;;5.00;;
70707;SDS011;58277;47.316;18.908;2022-07-29T14:08:10;12.35;;;5.15;;
70707;SDS011;58277;47.316;18.908;2022-07-29T14:10:33;7.38;;;5.30;;
70707;SDS011;58277;47.316;18.908;2022-07-29T14:12:55;6.07;;;4.67;;
70707;SDS011;58277;47.316;18.908;2022-07-29T14:15:18;11.25;;;5.03;;
70707;SDS011;58277;47.316;18.908;2022-07-29T14:17:40;6.32;;;5.10;;
70707;SDS011;58277;47.316;18.908;2022-07-29T14:20:03;7.38;;;4.90;;
70707;SDS011;58277;47.316;18.908;2022-07-29T14:22:27;6.82;;;5.35;;
70707;SDS011;58277;47.316;18.908;2022-07-29T14:24:49;7.80;;;5.17;;
70707;SDS011;58277;47.316;18.908;2022-07-29T14:27:12;7.93;;;5.60;;
70707;SDS011;58277;47.316;18.908;2022-07-29T14:29:36;6.95;;;4.72;;
70707;SDS011;58277;47.316;18.908;2022-07-29T14:32:00;9.93;;;5.35;;
70707;SDS011;58277;47.316;18.908;2022-07-29T14:34:23;10.07;;;7.25;;
70707;SDS011;58277;47.316;18.908;2022-07-29T14:36:46;8.07;;;4.80;;
70707;SDS011;58277;47.316;18.908;2022-07-29T14:39:09;6.28;;;5.05;;
70707;SDS011;58277;47.316;18.908;2022-07-29T14:41:31;8.35;;;4.95;;
70707;SDS011;58277;47.316;18.908;2022-07-29T14:43:54;10.73;;;5.35;;
70707;SDS011;58277;47.316;18.908;2022-07-29T14:46:17;13.65;;;9.02;;
70707;SDS011;58277;47.316;18.908;2022-07-29T14:48:40;7.40;;;5.03;;
70707;SDS011;58277;47.316;18.908;2022-07-29T14:51:03;9.00;;;4.95;;
70707;SDS011;58277;47.316;18.908;2022-07-29T14:53:26;6.75;;;4.88;;
70707;SDS011;58277;47.316;18.908;2022-07-29T14:55:50;6.78;;;5.13;;
70707;SDS011;58277;47.316;18.908;2022-07-29T14:58:12;5.88;;;5.28;;
70707;SDS011;58277;47.316;18.908;2022-07-29T15:00:37;5.40;;;4.60;;
70707;SDS011;58277;47.316;18.908;2022-07-29T15:03:00;6.97;;;4.80;;
70707;SDS011;58277;47.316;18.908;2022-07-29T15:05:24;7.05;;;4.97;;
70707;SDS011;58277;47.316;18.908;2022-07-29T15:07:47;8.02;;;4.72;;
70707;SDS011;58277;47.316;18.908;2022-07-29T15:10:10;8.18;;;5.03;;
70707;SDS011;58277;47.316;18.908;2022-07-29T15:12:36;6.40;;;4.90;;
70707;SDS011;58277;47.316;18.908;2022-07-29T15:14:59;6.97;;;5.05;;
70707;SDS011;58277;47.316;18.908;2022-07-29T15:17:21;7.90;;;4.70;;
70707;SDS011;58277;47.316;18.908;2022-07-29T15:19:44;5.53;;;4.60;;
70707;SDS011;58277;47.316;18.908;2022-07-29T15:22:07;7.20;;;5.10;;
70707;SDS011;58277;47.316;18.908;2022-07-29T15:24:29;8.97;;;4.90;;
70707;SDS011;58277;47.316;18.908;2022-07-29T15:26:52;7.82;;;4.90;;
70707;SDS011;58277;47.316;18.908;2022-07-29T15:29:15;6.00;;;4.90;;
70707;SDS011;58277;47.316;18.908;2022-07-29T15:31:38;7.60;;;5.30;;
70707;SDS011;58277;47.316;18.908;2022-07-29T15:34:02;6.63;;;5.38;;